Time;durP1;ratioP1;P1;durP2;ratioP2;P2;SDS_P1;SDS_P2;PMS_P1;PMS_P2;Temp;Humidity;BMP_temperature;BMP_pressure;BME280_temperature;BME280_humidity;BME280_pressure;Samples;Min_cycle;Max_cycle;Signal;HPM_P1;HPM_P2
2022/11/03 00:00:56;;;;;;;3.00;1.60;;;12.00;99.90;;;;;;5075545;28;20921;-39
2022/11/03 00:03:22;;;;;;;5.50;2.03;;;12.00;99.90;;;;;;5083404;28;20188;-38
2022/11/03 00:06:05;;;;;;;6.83;1.90;;;12.00;99.90;;;;;;5069219;28;20219;-38
2022/11/03 00:08:41;;;;;;;5.07;2.10;;;12.00;99.90;;;;;;5069222;28;20240;-39
2022/11/03 00:11:10;;;;;;;6.00;1.80;;;12.10;99.90;;;;;;5084753;28;20446;-39
2022/11/03 00:13:38;;;;;;;4.60;1.57;;;12.10;99.90;;;;;;5070971;28;20438;-39
2022/11/03 00:16:04;;;;;;;10.63;2.00;;;12.10;99.90;;;;;;5069412;28;20428;-38
2022/11/03 00:18:30;;;;;;;6.73;2.23;;;12.10;99.90;;;;;;5086984;28;20476;-38
2022/11/03 00:21:01;;;;;;;4.03;2.00;;;12.10;99.90;;;;;;5089727;28;20750;-39
2022/11/03 00:23:33;;;;;;;8.80;2.07;;;12.20;99.90;;;;;;5089458;28;20181;-38
2022/11/03 00:26:08;;;;;;;4.00;1.80;;;12.20;99.90;;;;;;5076727;28;20422;-38
2022/11/03 00:28:34;;;;;;;9.20;2.30;;;12.20;99.90;;;;;;5076212;28;20475;-38
2022/11/03 00:31:04;;;;;;;7.53;2.13;;;12.20;99.90;;;;;;5088599;28;20418;-38
2022/11/03 00:33:31;;;;;;;6.03;2.03;;;12.20;99.90;;;;;;5086849;28;20498;-38
2022/11/03 00:35:57;;;;;;;5.93;2.13;;;12.10;99.90;;;;;;5089002;28;20456;-39
2022/11/03 00:38:23;;;;;;;7.83;2.33;;;12.20;99.90;;;;;;5088823;28;20928;-38
2022/11/03 00:40:57;;;;;;;4.30;2.47;;;12.20;99.90;;;;;;5088266;28;20483;-38
2022/11/03 00:43:24;;;;;;;6.40;2.40;;;12.30;99.90;;;;;;5068974;28;20821;-38
2022/11/03 00:45:50;;;;;;;8.00;2.37;;;12.30;99.90;;;;;;5069275;28;20455;-38
2022/11/03 00:48:28;;;;;;;7.97;2.67;;;12.30;99.90;;;;;;5069277;28;20451;-38
2022/11/03 00:51:15;;;;;;;5.73;2.20;;;12.30;99.90;;;;;;5068986;28;20438;-39
2022/11/03 00:53:55;;;;;;;10.70;2.93;;;12.30;99.90;;;;;;5061751;28;20431;-38
2022/11/03 00:56:27;;;;;;;9.53;2.93;;;12.30;99.90;;;;;;5069259;28;20422;-38
2022/11/03 00:58:53;;;;;;;11.03;2.63;;;12.30;99.90;;;;;;5068726;28;20427;-38
2022/11/03 01:01:22;;;;;;;5.90;2.20;;;12.40;99.90;;;;;;5068711;28;20419;-38
2022/11/03 01:06:50;;;;;;;8.70;2.43;;;12.30;99.90;;;;;;5068563;28;20435;-38
2022/11/03 01:09:21;;;;;;;6.77;2.60;;;12.30;99.90;;;;;;5067522;28;20425;-39
2022/11/03 01:12:05;;;;;;;7.43;2.20;;;12.30;99.90;;;;;;5068690;28;20414;-38
2022/11/03 01:14:34;;;;;;;6.50;2.10;;;12.30;99.90;;;;;;5069001;28;20411;-38
2022/11/03 01:17:01;;;;;;;6.83;2.93;;;12.30;99.90;;;;;;5070848;28;20450;-39
2022/11/03 01:19:27;;;;;;;4.80;2.27;;;12.40;99.90;;;;;;5071198;28;20427;-38
2022/11/03 01:21:52;;;;;;;5.10;2.77;;;12.30;99.90;;;;;;5072494;28;20920;-38
2022/11/03 01:24:19;;;;;;;10.73;3.03;;;12.30;99.90;;;;;;5076398;28;20175;-38
2022/11/03 01:26:44;;;;;;;6.37;3.10;;;12.40;99.90;;;;;;5092578;28;20185;-38
2022/11/03 01:29:10;;;;;;;6.43;2.67;;;12.40;99.90;;;;;;5092533;28;20468;-39
2022/11/03 01:31:35;;;;;;;8.53;2.23;;;12.40;99.90;;;;;;5092707;28;20184;-38
2022/11/03 01:34:01;;;;;;;4.67;2.27;;;12.30;99.90;;;;;;5090908;28;20551;-38
2022/11/03 01:36:27;;;;;;;7.50;2.60;;;12.30;99.90;;;;;;5091444;28;20642;-38
2022/11/03 01:38:55;;;;;;;4.40;2.17;;;12.30;99.90;;;;;;5091881;28;20446;-38
2022/11/03 01:41:23;;;;;;;9.33;2.77;;;12.30;99.90;;;;;;5092584;28;20203;-38
2022/11/03 01:44:10;;;;;;;8.70;3.03;;;12.30;99.90;;;;;;5092107;28;20819;-38
2022/11/03 01:46:41;;;;;;;6.00;2.63;;;12.30;99.90;;;;;;5092318;28;20425;-38
2022/11/03 01:49:35;;;;;;;9.33;2.90;;;12.30;99.90;;;;;;5091865;28;20403;-38
2022/11/03 01:52:08;;;;;;;11.43;2.83;;;12.40;99.90;;;;;;5081119;28;20449;-38
2022/11/03 01:54:36;;;;;;;5.87;2.23;;;12.30;99.90;;;;;;5091677;28;20441;-38
2022/11/03 01:57:05;;;;;;;5.73;3.07;;;12.30;99.90;;;;;;5092129;28;20454;-38
2022/11/03 01:59:31;;;;;;;6.40;2.20;;;12.30;99.90;;;;;;5091574;28;20414;-38
2022/11/03 02:01:57;;;;;;;7.13;2.87;;;12.30;99.90;;;;;;5092059;28;20756;-38
2022/11/03 02:04:28;;;;;;;13.43;2.83;;;12.30;99.90;;;;;;5091978;28;20184;-38
2022/11/03 02:07:01;;;;;;;10.27;3.07;;;12.30;99.90;;;;;;5091925;28;20199;-38
2022/11/03 02:09:27;;;;;;;9.27;2.70;;;12.30;99.90;;;;;;5091862;28;21133;-38
2022/11/03 02:12:05;;;;;;;6.13;3.13;;;12.30;99.90;;;;;;5091786;28;20415;-38
2022/11/03 02:14:30;;;;;;;6.33;2.60;;;12.30;99.90;;;;;;5091745;28;20434;-38
2022/11/03 02:17:02;;;;;;;7.40;2.53;;;12.20;99.90;;;;;;5091460;28;20520;-38
2022/11/03 02:19:49;;;;;;;6.03;2.63;;;12.20;99.90;;;;;;5091626;28;20168;-38
2022/11/03 02:22:23;;;;;;;5.00;1.97;;;12.20;99.90;;;;;;5091561;28;20406;-38
2022/11/03 02:24:52;;;;;;;6.67;2.40;;;12.20;99.90;;;;;;5091335;28;20417;-38
2022/11/03 02:27:19;;;;;;;7.77;2.53;;;12.20;99.90;;;;;;5091537;28;20940;-38
2022/11/03 02:29:45;;;;;;;7.00;3.10;;;12.10;99.90;;;;;;5091280;28;20413;-38
2022/11/03 02:32:25;;;;;;;5.50;2.13;;;12.20;99.90;;;;;;5090563;28;20789;-39
2022/11/03 02:34:51;;;;;;;5.23;2.00;;;12.20;99.90;;;;;;5091426;28;20463;-38
2022/11/03 02:37:21;;;;;;;7.60;2.67;;;12.20;99.90;;;;;;5091087;28;20450;-38
2022/11/03 02:39:53;;;;;;;8.40;2.63;;;12.20;99.90;;;;;;5091108;28;20538;-38
2022/11/03 02:42:19;;;;;;;11.93;2.63;;;12.20;99.90;;;;;;5091235;28;20411;-38
2022/11/03 02:44:46;;;;;;;5.37;1.87;;;12.20;99.90;;;;;;5091306;28;20418;-38
2022/11/03 02:47:13;;;;;;;7.60;2.63;;;12.30;99.90;;;;;;5091281;28;20883;-38
2022/11/03 02:49:52;;;;;;;7.70;2.43;;;12.20;99.90;;;;;;5090446;28;20749;-39
2022/11/03 02:52:48;;;;;;;4.43;2.13;;;12.20;99.90;;;;;;5089932;28;20842;-38
2022/11/03 02:55:22;;;;;;;5.60;1.77;;;12.20;99.90;;;;;;5091098;28;20465;-38
2022/11/03 02:58:29;;;;;;;5.43;2.00;;;12.20;99.90;;;;;;5091044;28;20508;-39
2022/11/03 03:01:02;;;;;;;6.17;2.43;;;12.20;99.90;;;;;;5008045;28;20433;-39
2022/11/03 03:03:30;;;;;;;5.13;2.33;;;12.20;99.90;;;;;;5077414;28;20418;-38
2022/11/03 03:06:02;;;;;;;5.53;2.03;;;12.20;99.90;;;;;;5090592;28;20548;-38
2022/11/03 03:08:29;;;;;;;9.37;2.57;;;12.20;99.90;;;;;;5090459;28;20422;-38
2022/11/03 03:10:59;;;;;;;7.50;2.63;;;12.20;99.90;;;;;;5090717;28;20418;-38
2022/11/03 03:13:25;;;;;;;8.13;2.27;;;12.20;99.90;;;;;;5090582;28;20433;-38
2022/11/03 03:16:11;;;;;;;7.33;1.97;;;12.10;99.90;;;;;;5090662;28;21111;-39
2022/11/03 03:18:36;;;;;;;5.57;1.80;;;12.20;99.90;;;;;;5090459;28;20429;-38
2022/11/03 03:21:11;;;;;;;6.67;2.47;;;12.10;99.90;;;;;;5090051;28;20418;-38
2022/11/03 03:23:46;;;;;;;8.13;3.20;;;12.20;99.90;;;;;;5090410;28;20181;-38
2022/11/03 03:26:36;;;;;;;9.83;2.13;;;12.20;99.90;;;;;;5090444;28;20990;-38
2022/11/03 03:29:14;;;;;;;10.23;1.90;;;12.20;99.90;;;;;;5090107;28;20410;-38
2022/11/03 03:31:46;;;;;;;5.87;1.83;;;12.20;99.90;;;;;;5090302;28;20425;-38
2022/11/03 03:34:13;;;;;;;4.53;2.07;;;12.20;99.90;;;;;;5089371;28;20414;-38
2022/11/03 03:36:41;;;;;;;6.37;2.40;;;12.20;99.90;;;;;;5090210;28;20454;-38
2022/11/03 03:39:10;;;;;;;8.20;2.30;;;12.20;99.90;;;;;;5089713;28;20406;-38
2022/11/03 03:41:36;;;;;;;3.97;2.20;;;12.20;99.90;;;;;;5090013;28;20454;-38
2022/11/03 03:44:06;;;;;;;7.07;1.93;;;12.30;99.90;;;;;;5090340;28;20410;-38
2022/11/03 03:46:37;;;;;;;3.80;2.60;;;12.20;99.90;;;;;;5090296;28;20499;-39
2022/11/03 03:49:03;;;;;;;8.57;2.03;;;12.30;99.90;;;;;;5089651;28;20418;-39
2022/11/03 03:51:30;;;;;;;5.77;2.27;;;12.30;99.90;;;;;;5090360;28;20480;-38
2022/11/03 03:53:56;;;;;;;4.70;2.00;;;12.20;99.90;;;;;;5089747;28;20414;-38
2022/11/03 03:56:34;;;;;;;6.83;2.83;;;12.20;99.90;;;;;;5089835;28;20442;-38
2022/11/03 03:59:00;;;;;;;4.23;2.30;;;12.20;99.90;;;;;;5089645;28;20199;-39
2022/11/03 04:01:26;;;;;;;5.20;2.70;;;12.20;99.90;;;;;;5090148;28;20406;-38
2022/11/03 04:03:51;;;;;;;3.40;2.03;;;12.20;99.90;;;;;;5089669;28;20265;-39
2022/11/03 04:06:17;;;;;;;6.07;2.30;;;12.20;99.90;;;;;;5089974;28;20256;-38
2022/11/03 04:08:42;;;;;;;5.37;2.80;;;12.20;99.90;;;;;;5089479;28;20215;-38
2022/11/03 04:22:15;;;;;;;5.57;2.23;;;12.20;99.90;;;;;;5089232;28;20418;-38
2022/11/03 04:24:41;;;;;;;4.20;1.90;;;12.20;99.90;;;;;;5088614;28;20406;-39
2022/11/03 04:27:35;;;;;;;5.60;2.37;;;12.20;99.90;;;;;;5088690;28;20422;-38
2022/11/03 04:30:15;;;;;;;10.60;3.60;;;12.20;99.90;;;;;;5088042;28;21074;-39
2022/11/03 04:32:41;;;;;;;6.13;2.30;;;12.10;99.90;;;;;;5088422;28;20450;-38
2022/11/03 04:35:21;;;;;;;6.53;2.20;;;12.20;99.90;;;;;;5089811;28;20416;-39
2022/11/03 04:37:57;;;;;;;5.53;2.07;;;12.10;99.90;;;;;;5089417;28;20994;-39
2022/11/03 04:40:23;;;;;;;7.23;1.90;;;12.10;99.90;;;;;;5089332;28;20457;-39
2022/11/03 04:42:49;;;;;;;4.50;1.90;;;12.20;99.90;;;;;;5089346;28;20503;-39
2022/11/03 04:45:32;;;;;;;5.77;2.60;;;12.20;99.90;;;;;;5089526;28;20425;-39
2022/11/03 04:48:05;;;;;;;3.83;2.07;;;12.20;99.90;;;;;;5089500;28;20865;-39
2022/11/03 04:50:30;;;;;;;8.50;2.27;;;12.20;99.90;;;;;;5089105;28;20947;-39
2022/11/03 04:52:57;;;;;;;7.77;2.40;;;12.20;99.90;;;;;;5093008;28;20426;-39
2022/11/03 04:55:24;;;;;;;4.13;1.70;;;12.30;99.90;;;;;;5093568;28;20241;-39
2022/11/03 04:57:55;;;;;;;10.00;3.13;;;12.30;99.90;;;;;;5093255;28;20915;-39
2022/11/03 05:00:22;;;;;;;9.70;2.23;;;12.30;99.90;;;;;;5093027;28;20425;-38
2022/11/03 05:02:49;;;;;;;4.87;1.90;;;12.30;99.90;;;;;;5092960;28;20812;-38
2022/11/03 05:05:25;;;;;;;6.33;2.53;;;12.30;99.90;;;;;;5092836;28;20568;-39
2022/11/03 05:07:54;;;;;;;5.53;2.30;;;12.30;99.90;;;;;;5093192;28;20470;-38
2022/11/03 05:10:28;;;;;;;4.97;2.83;;;12.30;99.90;;;;;;5092564;28;20525;-38
2022/11/03 05:12:54;;;;;;;7.97;2.23;;;12.30;99.90;;;;;;5093015;28;20422;-38
2022/11/03 05:15:29;;;;;;;6.07;2.00;;;12.30;99.90;;;;;;5091535;28;20446;-38
2022/11/03 05:17:56;;;;;;;6.27;1.87;;;12.30;99.90;;;;;;5092995;28;21135;-38
2022/11/03 05:20:35;;;;;;;7.30;2.20;;;12.30;99.90;;;;;;5092522;28;20422;-39
2022/11/03 05:23:01;;;;;;;9.50;3.47;;;12.30;99.90;;;;;;5092554;28;20398;-39
2022/11/03 05:25:47;;;;;;;4.93;2.10;;;12.30;99.90;;;;;;5092802;28;20433;-38
2022/11/03 05:28:20;;;;;;;5.23;2.37;;;12.40;99.90;;;;;;5092821;28;20418;-38
2022/11/03 05:30:49;;;;;;;8.37;2.43;;;12.40;99.90;;;;;;5092333;28;20415;-38
2022/11/03 05:33:35;;;;;;;6.37;1.90;;;12.40;99.90;;;;;;5091478;28;20413;-38
2022/11/03 05:36:07;;;;;;;7.20;2.73;;;12.30;99.90;;;;;;5092382;28;20500;-38
2022/11/03 05:38:33;;;;;;;5.93;2.27;;;12.30;99.90;;;;;;5091066;28;20911;-38
2022/11/03 05:41:00;;;;;;;11.40;2.43;;;12.30;99.90;;;;;;5092303;28;20407;-39
2022/11/03 05:43:27;;;;;;;4.40;1.93;;;12.40;99.90;;;;;;5090973;28;20418;-38
2022/11/03 05:45:57;;;;;;;4.47;2.30;;;12.30;99.90;;;;;;5092476;28;20422;-38
2022/11/03 05:48:32;;;;;;;4.57;2.13;;;12.30;99.90;;;;;;5092153;28;20415;-38
2022/11/03 05:50:59;;;;;;;6.83;2.40;;;12.30;99.90;;;;;;5092327;28;20454;-38
2022/11/03 05:53:26;;;;;;;5.03;2.07;;;12.40;99.90;;;;;;5090776;28;20501;-39
2022/11/03 05:55:57;;;;;;;4.30;1.97;;;12.40;99.90;;;;;;5092119;28;20882;-38
2022/11/03 05:58:34;;;;;;;6.73;2.43;;;12.40;99.90;;;;;;5076093;28;20481;-39
2022/11/03 06:01:03;;;;;;;11.60;3.70;;;12.50;99.90;;;;;;5085634;28;20467;-38
2022/11/03 06:03:33;;;;;;;8.00;2.03;;;12.40;99.90;;;;;;5090687;28;20418;-38
2022/11/03 06:06:00;;;;;;;7.50;2.73;;;12.50;99.90;;;;;;5090428;28;20478;-39
2022/11/03 06:08:32;;;;;;;5.83;2.13;;;12.40;99.90;;;;;;5090185;28;20469;-38
2022/11/03 06:11:00;;;;;;;8.27;2.27;;;12.40;99.90;;;;;;5092041;28;20419;-38
2022/11/03 06:13:32;;;;;;;10.73;3.07;;;12.40;99.90;;;;;;5091551;28;20945;-39
2022/11/03 06:16:02;;;;;;;11.70;2.67;;;12.40;99.90;;;;;;5091687;28;20415;-39
2022/11/03 06:18:36;;;;;;;5.40;2.43;;;12.40;99.90;;;;;;5096609;28;20832;-38
2022/11/03 06:21:24;;;;;;;6.40;2.77;;;12.50;99.90;;;;;;5091898;28;20415;-39
2022/11/03 06:23:51;;;;;;;7.10;2.70;;;12.50;99.90;;;;;;5091212;28;20411;-38
2022/11/03 06:26:23;;;;;;;7.50;2.00;;;12.50;99.90;;;;;;5091507;28;20456;-39
2022/11/03 06:28:49;;;;;;;5.80;2.50;;;12.50;99.90;;;;;;5091397;28;20419;-38
2022/11/03 06:31:26;;;;;;;6.10;2.37;;;12.50;99.90;;;;;;5091398;28;20928;-39
2022/11/03 06:33:53;;;;;;;5.00;2.20;;;12.50;99.90;;;;;;5090366;28;20414;-39
2022/11/03 06:36:25;;;;;;;6.30;1.97;;;12.50;99.90;;;;;;5093743;28;20477;-38
2022/11/03 06:38:56;;;;;;;4.60;1.80;;;12.50;99.90;;;;;;5086000;28;20438;-39
2022/11/03 06:41:27;;;;;;;6.20;2.50;;;12.50;99.90;;;;;;5100600;28;20422;-39
2022/11/03 06:43:53;;;;;;;5.27;2.17;;;12.50;99.90;;;;;;5091172;28;20505;-38
2022/11/03 06:46:22;;;;;;;4.93;2.00;;;12.50;99.90;;;;;;5091220;28;20497;-38
2022/11/03 06:48:48;;;;;;;7.47;1.97;;;12.60;99.90;;;;;;5088275;28;20422;-38
2022/11/03 06:51:19;;;;;;;3.83;1.67;;;12.60;99.90;;;;;;5089510;28;20457;-38
2022/11/03 06:53:46;;;;;;;6.00;2.30;;;12.60;99.90;;;;;;5091079;28;20406;-38
2022/11/03 06:56:25;;;;;;;8.17;2.17;;;12.60;99.90;;;;;;5085277;28;20437;-38
2022/11/03 06:58:56;;;;;;;4.23;2.27;;;12.60;99.90;;;;;;5084666;28;20414;-38
2022/11/03 07:01:22;;;;;;;6.63;3.07;;;12.60;99.90;;;;;;5090807;28;20427;-38
2022/11/03 07:03:51;;;;;;;8.33;2.30;;;12.60;99.90;;;;;;5089855;28;20411;-38
2022/11/03 07:06:23;;;;;;;5.90;2.20;;;12.60;99.90;;;;;;5090133;28;20528;-38
2022/11/03 07:09:00;;;;;;;5.03;2.20;;;12.60;99.90;;;;;;5085744;28;20535;-38
2022/11/03 07:11:50;;;;;;;7.03;2.10;;;12.60;99.90;;;;;;5086812;28;20462;-38
2022/11/03 07:14:20;;;;;;;6.57;2.53;;;12.70;99.90;;;;;;5080824;28;20454;-38
2022/11/03 07:17:02;;;;;;;7.87;1.80;;;12.70;99.90;;;;;;5069319;28;20455;-38
2022/11/03 07:19:40;;;;;;;4.63;1.67;;;12.70;99.90;;;;;;5069964;28;20519;-38
2022/11/03 07:22:22;;;;;;;8.93;3.60;;;12.70;99.90;;;;;;5093205;28;20449;-39
2022/11/03 07:24:51;;;;;;;7.37;2.80;;;12.70;99.90;;;;;;5096156;28;20491;-38
2022/11/03 07:27:24;;;;;;;8.20;2.73;;;12.70;99.90;;;;;;5098499;28;20504;-38
2022/11/03 07:29:52;;;;;;;5.43;2.30;;;12.80;99.90;;;;;;5089962;28;20501;-39
2022/11/03 07:32:21;;;;;;;6.30;2.00;;;12.80;99.90;;;;;;5089403;28;20417;-38
2022/11/03 07:34:48;;;;;;;7.10;2.37;;;12.80;99.90;;;;;;5088891;28;20411;-38
2022/11/03 07:37:19;;;;;;;8.30;3.43;;;12.90;99.90;;;;;;5089981;28;20868;-38
2022/11/03 07:39:46;;;;;;;10.40;3.07;;;12.80;99.90;;;;;;5089930;28;20407;-38
2022/11/03 07:42:18;;;;;;;6.73;2.30;;;12.80;99.90;;;;;;5089051;28;20457;-38
2022/11/03 07:44:45;;;;;;;4.43;1.80;;;12.90;99.90;;;;;;5090079;28;20521;-38
2022/11/03 07:47:18;;;;;;;9.87;2.30;;;12.90;99.90;;;;;;5090239;28;20459;-39
2022/11/03 07:49:44;;;;;;;5.90;2.10;;;12.90;99.90;;;;;;5089624;28;20410;-38
2022/11/03 07:52:18;;;;;;;6.67;2.43;;;12.90;99.90;;;;;;5090022;28;20475;-38
2022/11/03 07:54:44;;;;;;;5.70;2.13;;;12.90;99.90;;;;;;5102257;28;20432;-38
2022/11/03 07:57:17;;;;;;;3.50;1.80;;;12.90;99.90;;;;;;5097822;28;20458;-38
2022/11/03 07:59:46;;;;;;;6.43;2.43;;;12.90;99.90;;;;;;5089749;28;20187;-38
2022/11/03 08:02:32;;;;;;;3.03;1.63;;;13.00;99.90;;;;;;5089579;28;20406;-38
2022/11/03 08:04:58;;;;;;;4.23;2.20;;;13.10;99.90;;;;;;5090038;28;20418;-39
2022/11/03 08:07:24;;;;;;;6.27;2.10;;;13.20;99.90;;;;;;5089823;28;20961;-38
2022/11/03 08:09:50;;;;;;;6.73;2.10;;;13.40;99.90;;;;;;5089753;28;20458;-38
2022/11/03 08:12:15;;;;;;;3.17;1.90;;;13.50;99.90;;;;;;5088338;28;20237;-38
2022/11/03 08:14:41;;;;;;;5.67;1.90;;;13.50;99.90;;;;;;5089506;28;20441;-38
2022/11/03 08:17:07;;;;;;;4.73;2.23;;;13.60;99.90;;;;;;5108010;28;20661;-39
2022/11/03 08:19:32;;;;;;;3.83;1.90;;;13.60;99.90;;;;;;5103187;28;20176;-38
2022/11/03 08:21:58;;;;;;;7.10;2.27;;;13.70;99.90;;;;;;5074065;28;20204;-38
2022/11/03 08:24:24;;;;;;;5.30;2.20;;;13.80;99.90;;;;;;5072674;28;20176;-39
2022/11/03 08:26:49;;;;;;;9.07;2.53;;;13.80;99.90;;;;;;5093500;28;20195;-39
2022/11/03 08:29:16;;;;;;;6.03;1.97;;;13.90;99.90;;;;;;5085132;28;20634;-38
2022/11/03 08:31:42;;;;;;;5.30;2.10;;;13.90;99.90;;;;;;5109479;28;20274;-39
2022/11/03 08:34:09;;;;;;;7.70;2.33;;;13.90;99.90;;;;;;5112766;28;20504;-39
2022/11/03 08:36:34;;;;;;;6.33;2.50;;;13.90;99.90;;;;;;5114338;28;20823;-39
2022/11/03 08:39:00;;;;;;;6.80;2.93;;;13.80;99.90;;;;;;5113702;28;20481;-38
2022/11/03 08:41:25;;;;;;;6.73;2.00;;;13.80;99.90;;;;;;5095926;28;20233;-39
2022/11/03 08:43:51;;;;;;;6.40;2.10;;;13.80;99.90;;;;;;5093366;28;20267;-38
2022/11/03 08:46:17;;;;;;;6.13;2.47;;;13.80;99.90;;;;;;5093592;28;20181;-38
2022/11/03 08:48:42;;;;;;;3.63;2.50;;;13.80;99.90;;;;;;5093532;28;20201;-38
2022/11/03 08:51:12;;;;;;;9.00;2.73;;;13.80;99.90;;;;;;5093450;28;20180;-38
2022/11/03 08:53:37;;;;;;;5.53;2.50;;;13.70;99.90;;;;;;5093249;28;20176;-38
2022/11/03 08:56:04;;;;;;;6.20;2.40;;;13.70;99.90;;;;;;5093564;28;20422;-38
2022/11/03 08:58:30;;;;;;;6.60;2.20;;;13.80;99.90;;;;;;5092878;28;20454;-38
2022/11/03 09:00:56;;;;;;;5.80;2.00;;;13.80;99.90;;;;;;5093413;28;20421;-39
2022/11/03 09:03:22;;;;;;;9.60;2.03;;;13.90;99.90;;;;;;5091555;28;20913;-38
2022/11/03 09:05:48;;;;;;;4.87;1.67;;;13.90;99.90;;;;;;5093149;28;20445;-38
2022/11/03 09:08:13;;;;;;;4.37;1.90;;;14.00;99.90;;;;;;5093195;28;20410;-38
2022/11/03 09:10:39;;;;;;;8.50;1.87;;;14.00;99.90;;;;;;5092981;28;20183;-39
2022/11/03 09:13:05;;;;;;;4.17;1.90;;;14.20;99.90;;;;;;5092553;28;20188;-39
2022/11/03 09:15:31;;;;;;;6.33;2.20;;;14.30;99.90;;;;;;5093271;28;20195;-39
2022/11/03 09:17:57;;;;;;;7.50;1.60;;;14.30;99.90;;;;;;5093010;28;21014;-38
2022/11/03 09:20:22;;;;;;;5.03;1.90;;;14.40;99.90;;;;;;5092481;28;20928;-39
2022/11/03 09:22:48;;;;;;;4.53;1.90;;;14.40;99.90;;;;;;5091426;28;20230;-38
2022/11/03 09:25:14;;;;;;;3.10;2.00;;;14.40;99.90;;;;;;5092758;28;20188;-38
2022/11/03 09:27:39;;;;;;;8.57;1.80;;;14.50;99.90;;;;;;5092658;28;20190;-38
2022/11/03 09:30:06;;;;;;;3.17;1.53;;;14.60;99.90;;;;;;5092431;28;20565;-38
2022/11/03 09:32:32;;;;;;;3.40;1.83;;;14.60;99.90;;;;;;5091593;28;20189;-39
2022/11/03 09:34:57;;;;;;;4.53;2.77;;;14.70;99.90;;;;;;5092510;28;20414;-38
2022/11/03 09:37:23;;;;;;;4.87;1.83;;;14.70;99.90;;;;;;5091802;28;20472;-39
2022/11/03 09:39:49;;;;;;;2.37;1.70;;;14.70;99.90;;;;;;5092118;28;20187;-39
2022/11/03 09:42:16;;;;;;;3.83;1.97;;;14.80;99.90;;;;;;5092264;28;20217;-39
2022/11/03 09:44:41;;;;;;;2.50;1.60;;;14.80;99.90;;;;;;5092476;28;20563;-38
2022/11/03 09:47:14;;;;;;;6.90;2.90;;;14.90;99.90;;;;;;5092375;28;20426;-38
2022/11/03 09:49:40;;;;;;;7.60;1.90;;;14.90;99.90;;;;;;5092141;28;20797;-38
2022/11/03 09:52:06;;;;;;;4.97;1.70;;;14.90;99.90;;;;;;5090955;28;20506;-38
2022/11/03 09:54:31;;;;;;;6.73;1.90;;;14.90;99.90;;;;;;5092125;28;20187;-39
2022/11/03 09:57:11;;;;;;;7.10;1.90;;;14.90;99.90;;;;;;5092035;28;20204;-39
2022/11/03 09:59:38;;;;;;;3.60;1.53;;;14.90;99.90;;;;;;5092088;28;20588;-38
2022/11/03 10:02:18;;;;;;;2.87;1.60;;;15.00;99.90;;;;;;5092218;28;20567;-39
2022/11/03 10:04:44;;;;;;;4.03;1.50;;;15.00;99.90;;;;;;5090517;28;20471;-39
2022/11/03 10:07:10;;;;;;;4.50;1.77;;;15.00;99.90;;;;;;5091851;28;20430;-40
2022/11/03 10:09:39;;;;;;;5.80;1.37;;;15.10;99.90;;;;;;5091640;28;20184;-39
2022/11/03 10:12:08;;;;;;;2.80;1.30;;;15.00;99.90;;;;;;5091952;28;20418;-38
2022/11/03 10:14:34;;;;;;;3.87;1.70;;;15.10;99.90;;;;;;5091645;28;20884;-39
2022/11/03 10:16:59;;;;;;;6.63;2.60;;;15.00;99.90;;;;;;5091896;28;20596;-39
2022/11/03 10:19:25;;;;;;;2.80;1.47;;;15.00;99.90;;;;;;5091609;28;20877;-39
2022/11/03 10:21:51;;;;;;;3.50;1.87;;;15.00;99.90;;;;;;5091671;28;20184;-39
2022/11/03 10:24:17;;;;;;;6.10;1.70;;;15.00;99.90;;;;;;5090322;28;20863;-38
2022/11/03 10:26:47;;;;;;;3.57;1.50;;;15.00;99.90;;;;;;5091543;28;20505;-38
2022/11/03 10:29:24;;;;;;;3.30;1.67;;;15.00;99.90;;;;;;5091250;28;20293;-39
2022/11/03 10:31:57;;;;;;;3.70;1.30;;;15.00;99.90;;;;;;5091334;28;20416;-38
2022/11/03 10:34:39;;;;;;;3.90;1.70;;;15.00;99.90;;;;;;5091042;28;20418;-38
2022/11/03 10:37:24;;;;;;;4.70;1.70;;;15.00;99.90;;;;;;5091353;28;20469;-38
2022/11/03 10:39:55;;;;;;;3.00;1.40;;;14.90;99.90;;;;;;5091327;28;20490;-39
2022/11/03 10:42:29;;;;;;;4.83;2.00;;;14.90;99.90;;;;;;5091011;28;20477;-38
2022/11/03 10:45:18;;;;;;;7.63;2.30;;;14.90;99.90;;;;;;5091436;28;20488;-38
2022/11/03 10:48:03;;;;;;;7.13;1.87;;;14.90;99.90;;;;;;5091121;28;20910;-38
2022/11/03 10:50:29;;;;;;;3.03;1.53;;;14.90;99.90;;;;;;5090440;28;20456;-38
2022/11/03 10:52:55;;;;;;;4.63;1.37;;;14.90;99.90;;;;;;5090613;28;20418;-38
2022/11/03 10:55:23;;;;;;;3.97;1.30;;;14.90;99.90;;;;;;5091408;28;20177;-38
2022/11/03 10:57:49;;;;;;;3.17;1.60;;;14.90;99.90;;;;;;5091055;28;20462;-39
2022/11/03 11:00:18;;;;;;;3.60;1.70;;;14.90;99.90;;;;;;5090684;28;20417;-39
2022/11/03 11:02:46;;;;;;;2.73;1.30;;;14.90;99.90;;;;;;5090608;28;20189;-39
2022/11/03 11:05:19;;;;;;;7.00;1.60;;;14.90;99.90;;;;;;5090777;28;20468;-38
2022/11/03 11:07:45;;;;;;;3.30;1.60;;;15.00;99.90;;;;;;5090781;28;20476;-39
2022/11/03 11:10:30;;;;;;;3.23;1.33;;;15.00;99.90;;;;;;5089254;28;20422;-39
2022/11/03 11:13:17;;;;;;;3.23;2.03;;;15.00;99.90;;;;;;5090583;28;20418;-38
2022/11/03 11:15:44;;;;;;;3.40;1.57;;;15.00;99.90;;;;;;5090618;28;20407;-39
2022/11/03 11:18:30;;;;;;;3.43;1.43;;;15.00;99.90;;;;;;5090836;28;20937;-38
2022/11/03 11:20:56;;;;;;;7.87;2.00;;;15.00;99.90;;;;;;5090414;28;20498;-39
2022/11/03 11:23:28;;;;;;;4.77;1.50;;;15.00;99.90;;;;;;5090557;28;20838;-38
2022/11/03 11:26:08;;;;;;;4.00;1.93;;;14.90;99.90;;;;;;5090549;28;20165;-39
2022/11/03 11:28:39;;;;;;;5.33;1.60;;;15.00;99.90;;;;;;5090246;28;20421;-38
2022/11/03 11:31:26;;;;;;;3.57;2.20;;;15.10;99.90;;;;;;5090583;28;20414;-38
2022/11/03 11:34:16;;;;;;;2.67;1.60;;;15.20;99.90;;;;;;5087614;28;20948;-38
2022/11/03 11:37:12;;;;;;;4.20;1.60;;;15.30;99.90;;;;;;5083447;28;20433;-38
2022/11/03 11:39:43;;;;;;;4.53;1.83;;;15.40;99.90;;;;;;5065101;28;20460;-38
2022/11/03 11:42:19;;;;;;;4.10;1.60;;;15.50;99.90;;;;;;5090217;28;20422;-38
2022/11/03 11:44:54;;;;;;;3.40;1.20;;;15.50;99.90;;;;;;5090264;28;20430;-39
2022/11/03 11:47:29;;;;;;;6.90;1.57;;;15.70;99.90;;;;;;5090341;28;20414;-39
2022/11/03 11:50:09;;;;;;;2.23;1.20;;;15.90;99.90;;;;;;5088623;28;20474;-38
2022/11/03 11:52:46;;;;;;;1.90;1.23;;;16.00;99.90;;;;;;5088706;28;20418;-39
2022/11/03 11:55:30;;;;;;;5.07;2.10;;;16.10;99.90;;;;;;5089814;28;20406;-39
2022/11/03 11:57:57;;;;;;;5.10;1.40;;;16.20;99.90;;;;;;5090092;28;20450;-39
2022/11/03 12:00:25;;;;;;;3.03;1.83;;;16.40;99.90;;;;;;5089112;28;20453;-38
2022/11/03 12:02:55;;;;;;;4.33;1.47;;;16.50;99.90;;;;;;5088603;28;20398;-39
2022/11/03 12:05:24;;;;;;;3.40;1.70;;;16.50;99.90;;;;;;5089923;28;21002;-39
2022/11/03 12:07:50;;;;;;;3.90;1.40;;;16.60;99.90;;;;;;5089782;28;20413;-38
2022/11/03 12:10:19;;;;;;;5.80;1.50;;;16.60;99.90;;;;;;5089575;28;21153;-39
2022/11/03 12:12:45;;;;;;;2.50;1.30;;;16.70;99.90;;;;;;5089649;28;20248;-39
2022/11/03 12:15:51;;;;;;;3.90;1.80;;;16.60;99.90;;;;;;5089997;28;20501;-39
2022/11/03 12:18:40;;;;;;;4.30;2.10;;;16.50;99.90;;;;;;5089558;28;20514;-38
2022/11/03 12:21:33;;;;;;;4.50;1.30;;;16.30;99.90;;;;;;5088224;28;20425;-38
2022/11/03 12:23:58;;;;;;;6.93;1.63;;;16.20;99.90;;;;;;5088663;28;20419;-38
2022/11/03 12:26:24;;;;;;;4.07;1.17;;;16.10;99.90;;;;;;5089932;28;20425;-39
2022/11/03 12:28:50;;;;;;;4.57;1.47;;;16.00;99.90;;;;;;5089223;28;20191;-38
2022/11/03 12:31:15;;;;;;;4.00;1.33;;;16.00;99.90;;;;;;5089880;28;20183;-38
2022/11/03 12:33:41;;;;;;;2.30;1.37;;;15.80;99.90;;;;;;5088093;28;20457;-39
2022/11/03 12:36:07;;;;;;;2.70;1.37;;;15.70;99.90;;;;;;5089844;28;20184;-39
2022/11/03 12:38:33;;;;;;;3.80;1.53;;;15.70;99.90;;;;;;5089071;28;20236;-39
2022/11/03 12:41:19;;;;;;;2.80;1.33;;;15.60;99.90;;;;;;5089587;28;21123;-39
2022/11/03 12:43:45;;;;;;;5.50;1.83;;;15.60;99.90;;;;;;5089059;28;20411;-39
2022/11/03 12:46:11;;;;;;;3.20;1.63;;;15.60;99.90;;;;;;5094982;28;20912;-39
2022/11/03 12:48:42;;;;;;;4.20;1.50;;;15.60;99.90;;;;;;5089311;28;20422;-38
2022/11/03 12:51:18;;;;;;;3.53;1.90;;;15.60;99.90;;;;;;5080466;28;20247;-39
2022/11/03 12:53:45;;;;;;;5.80;1.70;;;15.70;99.90;;;;;;5088170;28;20421;-39
2022/11/03 12:56:11;;;;;;;3.10;1.40;;;15.80;99.90;;;;;;5093760;28;20452;-38
2022/11/03 12:58:37;;;;;;;3.07;1.27;;;15.90;99.90;;;;;;5105536;28;20866;-38
2022/11/03 13:01:04;;;;;;;2.70;1.53;;;16.00;99.90;;;;;;5098767;28;20409;-39
2022/11/03 13:03:31;;;;;;;7.67;1.60;;;16.00;99.90;;;;;;5097222;28;20410;-38
2022/11/03 13:05:57;;;;;;;3.23;1.33;;;16.00;99.90;;;;;;5088737;28;20956;-38
2022/11/03 13:08:23;;;;;;;3.60;1.50;;;16.00;99.90;;;;;;5088539;28;20489;-38
2022/11/03 13:10:49;;;;;;;3.03;1.23;;;15.90;99.90;;;;;;5096087;28;20461;-38
2022/11/03 13:13:15;;;;;;;3.60;1.40;;;15.80;99.90;;;;;;5106397;28;20457;-39
2022/11/03 13:15:40;;;;;;;4.80;1.30;;;15.80;99.90;;;;;;5111904;28;20470;-39
2022/11/03 13:18:06;;;;;;;3.07;1.80;;;15.80;99.90;;;;;;5102556;28;20208;-38